Wetterdaten: Woche 29.11.10 - 05.12.10 (KW48)
Datum Zeit Temp. A. Feuchte A. Luftdruck Regen Wind Richtung Taupunkt Windchill Windben
29.11.2010 00:00 0,4 C 85 % 998,8 hPa 0,0 l/m 0,0 km/h N -1,8 C 0,4 C 0,0 km/h
29.11.2010 01:00 0,4 C 85 % 997,7 hPa 0,0 l/m 0,0 km/h N -1,8 C 0,4 C 0,0 km/h
29.11.2010 02:00 0,4 C 85 % 996,9 hPa 0,0 l/m 0,1 km/h N -1,8 C 0,4 C 0,8 km/h
29.11.2010 03:00 0,4 C 85 % 995,8 hPa 0,0 l/m 0,0 km/h N -1,8 C 0,4 C 1,2 km/h
29.11.2010 04:00 0,5 C 85 % 995,3 hPa 0,0 l/m 0,6 km/h N-NW -1,7 C 0,5 C 4,4 km/h
29.11.2010 05:00 0,6 C 85 % 995,4 hPa 0,0 l/m 1,5 km/h N-NW -1,6 C 0,6 C 8,4 km/h
29.11.2010 06:00 0,7 C 85 % 995,6 hPa 0,0 l/m 2,6 km/h NW -1,6 C 0,7 C 8,9 km/h
29.11.2010 07:00 0,8 C 85 % 995,8 hPa 0,0 l/m 2,0 km/h W -1,4 C 0,8 C 8,4 km/h
29.11.2010 08:00 1,2 C 86 % 996,7 hPa 0,0 l/m 2,2 km/h W-SW -0,9 C 1,2 C 9,3 km/h
29.11.2010 09:00 1,4 C 86 % 997,5 hPa 0,0 l/m 4,8 km/h W-NW -0,7 C 1,4 C 17,7 km/h
29.11.2010 10:00 1,9 C 85 % 998,3 hPa 1,0 l/m 5,9 km/h NW -0,4 C 1,9 C 20,4 km/h
29.11.2010 11:00 1,9 C 82 % 998,5 hPa 1,6 l/m 8,0 km/h W -0,9 C -0,1 C 30,2 km/h
29.11.2010 12:00 2,0 C 78 % 999,0 hPa 1,6 l/m 10,3 km/h W -1,5 C -1,4 C 27,8 km/h
29.11.2010 13:00 2,0 C 76 % 999,8 hPa 1,3 l/m 9,1 km/h W -1,8 C -0,5 C 23,3 km/h
29.11.2010 14:00 1,8 C 76 % 1000,9 hPa 1,0 l/m 9,2 km/h W -2,0 C -0,6 C 25,7 km/h
29.11.2010 15:00 1,7 C 76 % 1001,8 hPa 0,5 l/m 9,3 km/h W -2,1 C -0,9 C 22,9 km/h
29.11.2010 16:00 1,3 C 76 % 1002,6 hPa 0,5 l/m 9,5 km/h SW -2,4 C -1,4 C 24,9 km/h
29.11.2010 17:00 1,3 C 76 % 1003,7 hPa 0,0 l/m 9,9 km/h W-SW -2,5 C -2,0 C 23,3 km/h
29.11.2010 18:00 1,3 C 74 % 1004,5 hPa 0,3 l/m 9,6 km/h W -2,8 C -1,5 C 25,7 km/h
29.11.2010 19:00 1,3 C 77 % 1005,5 hPa 0,3 l/m 8,1 km/h W-NW -2,4 C -0,4 C 24,9 km/h
29.11.2010 20:00 1,3 C 74 % 1006,0 hPa 0,0 l/m 9,1 km/h SW -2,7 C -1,2 C 24,5 km/h
29.11.2010 21:00 1,3 C 75 % 1006,7 hPa 0,0 l/m 12,4 km/h NW -2,7 C -3,8 C 33,8 km/h
29.11.2010 22:00 1,3 C 75 % 1007,7 hPa 0,3 l/m 11,8 km/h W-NW -2,7 C -3,3 C 31,0 km/h
29.11.2010 23:00 1,2 C 75 % 1008,8 hPa 0,0 l/m 12,2 km/h W -2,7 C -3,6 C 27,4 km/h
30.11.2010 00:00 1,3 C 74 % 1010,3 hPa 0,3 l/m 6,5 km/h W-NW -2,8 C 0,8 C 20,1 km/h
30.11.2010 01:00 1,3 C 73 % 1011,3 hPa 0,0 l/m 6,7 km/h NW -2,9 C 0,7 C 19,7 km/h
30.11.2010 02:00 1,3 C 72 % 1012,1 hPa 0,0 l/m 6,5 km/h NW -3,3 C 1,1 C 20,9 km/h
30.11.2010 03:00 1,0 C 73 % 1012,2 hPa 0,0 l/m 5,3 km/h W-NW -3,4 C 0,9 C 16,5 km/h
30.11.2010 04:00 0,9 C 74 % 1012,9 hPa 0,0 l/m 2,2 km/h NW -3,3 C 0,9 C 10,1 km/h
30.11.2010 05:00 0,5 C 74 % 1013,4 hPa 0,0 l/m 3,1 km/h W-NW -3,6 C 0,5 C 12,9 km/h
30.11.2010 06:00 -0,1 C 75 % 1013,8 hPa 0,0 l/m 1,9 km/h NW -3,9 C -0,1 C 8,4 km/h
30.11.2010 07:00 -0,4 C 76 % 1014,7 hPa 0,0 l/m 0,7 km/h N -4,1 C -0,4 C 5,6 km/h
30.11.2010 08:00 -1,5 C 79 % 1015,3 hPa 0,0 l/m 0,4 km/h N -4,6 C -1,5 C 2,4 km/h
30.11.2010 09:00 -1,5 C 82 % 1015,7 hPa 0,0 l/m 0,2 km/h N -4,3 C -1,5 C 2,0 km/h
30.11.2010 10:00 -0,8 C 80 % 1015,8 hPa 0,0 l/m 1,8 km/h O-NO -3,9 C -0,8 C 5,6 km/h
30.11.2010 11:00 -0,7 C 78 % 1015,5 hPa 0,0 l/m 3,7 km/h O -4,0 C -0,7 C 8,4 km/h
30.11.2010 12:00 -0,9 C 78 % 1015,3 hPa 0,3 l/m 2,1 km/h O-SO -4,3 C -0,9 C 6,4 km/h
30.11.2010 13:00 -1,0 C 77 % 1014,8 hPa 0,3 l/m 0,6 km/h N -4,6 C -1,0 C 3,2 km/h
30.11.2010 14:00 -1,3 C 76 % 1014,6 hPa 0,0 l/m 0,1 km/h N -4,9 C -1,3 C 2,0 km/h
30.11.2010 15:00 -1,9 C 77 % 1014,4 hPa 0,0 l/m 0,0 km/h N -5,4 C -1,9 C 0,8 km/h
30.11.2010 16:00 -2,3 C 78 % 1014,6 hPa 0,0 l/m 0,1 km/h N -5,6 C -2,3 C 0,8 km/h
30.11.2010 17:00 -2,8 C 79 % 1015,0 hPa 0,0 l/m 0,1 km/h N -5,9 C -2,8 C 1,6 km/h
30.11.2010 18:00 -2,9 C 82 % 1015,0 hPa 0,0 l/m 0,5 km/h O-SO -5,5 C -2,9 C 3,2 km/h
30.11.2010 19:00 -2,6 C 83 % 1014,9 hPa 0,0 l/m 0,6 km/h N -5,1 C -2,6 C 3,6 km/h
30.11.2010 20:00 -2,7 C 83 % 1014,7 hPa 0,0 l/m 0,6 km/h N -5,2 C -2,7 C 4,0 km/h
30.11.2010 21:00 -2,8 C 82 % 1014,1 hPa 0,0 l/m 0,9 km/h O -5,4 C -2,8 C 4,0 km/h
30.11.2010 22:00 -2,8 C 82 % 1013,7 hPa 0,0 l/m 0,8 km/h O -5,4 C -2,8 C 4,4 km/h
30.11.2010 23:00 -2,9 C 83 % 1013,5 hPa 0,0 l/m 1,2 km/h O-SO -5,3 C -2,9 C 5,2 km/h
01.12.2010 00:00 -2,7 C 83 % 1013,4 hPa 0,0 l/m 1,0 km/h O -5,2 C -2,7 C 4,4 km/h
01.12.2010 01:00 -2,8 C 84 % 1012,8 hPa 0,0 l/m 1,3 km/h O -5,2 C -2,8 C 6,0 km/h
01.12.2010 02:00 -3,0 C 85 % 1012,1 hPa 0,0 l/m 2,9 km/h O -5,2 C -3,0 C 7,2 km/h
01.12.2010 03:00 -2,8 C 85 % 1011,7 hPa 0,0 l/m 1,2 km/h O-NO -5,0 C -2,8 C 5,2 km/h
01.12.2010 04:00 -2,6 C 85 % 1010,6 hPa 0,0 l/m 1,5 km/h O-SO -4,7 C -2,6 C 9,7 km/h
01.12.2010 05:00 -2,4 C 85 % 1010,3 hPa 0,0 l/m 2,4 km/h O -4,6 C -2,4 C 10,0 km/h
01.12.2010 06:00 -2,5 C 86 % 1009,2 hPa 0,0 l/m 3,9 km/h O -4,5 C -2,5 C 13,7 km/h
01.12.2010 07:00 -2,6 C 86 % 1008,6 hPa 0,0 l/m 5,2 km/h O -4,6 C -2,6 C 15,3 km/h
01.12.2010 08:00 -2,6 C 86 % 1009,2 hPa 0,0 l/m 3,1 km/h O -4,7 C -2,6 C 10,9 km/h
01.12.2010 09:00 -2,6 C 85 % 1007,6 hPa 0,0 l/m 4,6 km/h O -4,8 C -2,6 C 13,3 km/h
01.12.2010 10:00 -3,0 C 86 % 1007,2 hPa 0,0 l/m 3,2 km/h O-SO -5,0 C -3,0 C 10,8 km/h
01.12.2010 11:00 -2,9 C 86 % 1005,9 hPa 0,0 l/m 1,6 km/h O-SO -4,9 C -2,9 C 6,4 km/h
01.12.2010 12:00 -2,7 C 86 % 1004,6 hPa 0,0 l/m 0,9 km/h N -4,7 C -2,7 C 4,0 km/h
01.12.2010 13:00 -2,6 C 86 % 1003,0 hPa 0,0 l/m 0,3 km/h N -4,6 C -2,6 C 2,1 km/h
01.12.2010 14:00 -2,4 C 86 % 1002,2 hPa 0,0 l/m 0,1 km/h N -4,4 C -2,4 C 1,2 km/h
01.12.2010 15:00 -2,2 C 86 % 1001,3 hPa 0,0 l/m 0,6 km/h O -4,2 C -2,2 C 3,2 km/h
01.12.2010 16:00 -2,7 C 86 % 1000,4 hPa 0,0 l/m 0,5 km/h N -4,7 C -2,7 C 3,6 km/h
01.12.2010 17:00 -2,9 C 86 % 1000,0 hPa 0,0 l/m 0,1 km/h N -4,9 C -2,9 C 1,6 km/h
01.12.2010 18:00 -2,8 C 86 % 998,4 hPa 0,0 l/m 0,0 km/h S -4,8 C -2,8 C 3,2 km/h
01.12.2010 19:00 -2,5 C 86 % 997,4 hPa 0,0 l/m 1,6 km/h S -4,5 C -2,5 C 9,6 km/h
01.12.2010 20:00 -2,4 C 86 % 996,9 hPa 0,0 l/m 0,0 km/h N -4,4 C -2,4 C 4,0 km/h
01.12.2010 21:00 -2,0 C 86 % 997,1 hPa 0,0 l/m 0,0 km/h N -4,0 C -2,0 C 3,2 km/h
01.12.2010 22:00 -1,8 C 86 % 997,3 hPa 0,0 l/m 0,0 km/h W-SW -3,8 C -1,8 C 3,2 km/h
01.12.2010 23:00 -1,7 C 86 % 998,5 hPa 0,0 l/m 0,8 km/h N -3,7 C -1,7 C 9,6 km/h
02.12.2010 00:00 -2,0 C 86 % 999,3 hPa 0,0 l/m 0,0 km/h W-SW -4,0 C -2,0 C 5,6 km/h
02.12.2010 01:00 -1,0 C 86 % 1000,2 hPa 0,0 l/m 1,6 km/h S -3,0 C -1,0 C 16,1 km/h
02.12.2010 02:00 -1,8 C 85 % 1001,8 hPa 0,0 l/m 0,8 km/h N -4,0 C -1,8 C 8,1 km/h
02.12.2010 03:00 -2,3 C 85 % 1002,7 hPa 0,0 l/m 0,0 km/h SW -4,4 C -2,3 C 3,2 km/h
02.12.2010 04:00 -0,9 C 83 % 1003,3 hPa 0,0 l/m 2,4 km/h W-SW -3,4 C -0,9 C 14,5 km/h
02.12.2010 05:00 0,2 C 73 % 1004,2 hPa 0,0 l/m 5,6 km/h W-SW -4,2 C 0,2 C 21,7 km/h
02.12.2010 06:00 -0,3 C 72 % 1005,0 hPa 0,0 l/m 4,0 km/h W-SW -4,8 C -0,3 C 16,9 km/h
02.12.2010 07:00 -1,6 C 75 % 1006,4 hPa 0,0 l/m 0,0 km/h N -5,5 C -1,6 C 4,0 km/h
02.12.2010 08:00 -2,5 C 81 % 1008,0 hPa 0,0 l/m 0,0 km/h N -5,4 C -2,5 C 2,7 km/h
02.12.2010 09:00 -1,5 C 83 % 1008,7 hPa 0,0 l/m 0,6 km/h S-SO -4,1 C -1,5 C 6,0 km/h
02.12.2010 10:00 -1,3 C 82 % 1009,5 hPa 0,0 l/m 0,3 km/h N -4,0 C -1,3 C 3,2 km/h
02.12.2010 11:00 0,6 C 81 % 1009,2 hPa 0,0 l/m 0,0 km/h N -2,3 C 0,6 C 4,8 km/h
02.12.2010 12:00 1,2 C 78 % 1009,6 hPa 0,3 l/m 0,8 km/h O -2,2 C 1,2 C 5,6 km/h
02.12.2010 13:00 0,3 C 79 % 1010,1 hPa 0,0 l/m 0,2 km/h N -2,9 C 0,3 C 2,4 km/h
02.12.2010 14:00 0,0 C 81 % 1009,9 hPa 0,5 l/m 0,0 km/h N -2,9 C 0,0 C 0,0 km/h
02.12.2010 15:00 -0,0 C 82 % 1010,2 hPa 0,0 l/m 0,0 km/h N -2,7 C -0,0 C 0,4 km/h
02.12.2010 16:00 -0,3 C 83 % 1010,7 hPa 0,0 l/m 0,1 km/h N -2,9 C -0,3 C 2,0 km/h
02.12.2010 17:00 -0,6 C 84 % 1011,4 hPa 0,0 l/m 0,0 km/h N -2,9 C -0,6 C 0,0 km/h
02.12.2010 18:00 -0,8 C 85 % 1012,1 hPa 0,0 l/m 0,0 km/h N -3,1 C -0,8 C 0,0 km/h
02.12.2010 19:00 -0,8 C 85 % 1012,6 hPa 0,0 l/m 0,0 km/h N -3,0 C -0,8 C 0,0 km/h
02.12.2010 20:00 -0,8 C 85 % 1013,1 hPa 0,0 l/m 0,0 km/h N -3,0 C -0,8 C 0,0 km/h
02.12.2010 21:00 -0,9 C 86 % 1013,1 hPa 0,0 l/m 0,0 km/h N -3,0 C -0,9 C 0,0 km/h
02.12.2010 22:00 -1,0 C 86 % 1013,1 hPa 0,0 l/m 0,0 km/h N -3,1 C -1,0 C 0,0 km/h
02.12.2010 23:00 -1,2 C 86 % 1012,5 hPa 0,0 l/m 0,0 km/h N -3,2 C -1,2 C 0,0 km/h
03.12.2010 00:00 -1,3 C 86 % 1011,9 hPa 0,0 l/m 0,0 km/h N -3,3 C -1,3 C 0,0 km/h
03.12.2010 01:00 -1,4 C 86 % 1011,1 hPa 0,0 l/m 0,0 km/h N -3,4 C -1,4 C 0,0 km/h
03.12.2010 02:00 -1,8 C 86 % 1011,0 hPa 0,0 l/m 0,0 km/h N -3,8 C -1,8 C 0,0 km/h
03.12.2010 03:00 -2,3 C 86 % 1010,7 hPa 0,0 l/m 0,0 km/h N -4,4 C -2,3 C 0,0 km/h
03.12.2010 04:00 -2,8 C 86 % 1009,8 hPa 0,0 l/m 0,0 km/h N -4,8 C -2,8 C 0,0 km/h
03.12.2010 05:00 -2,9 C 86 % 1009,9 hPa 0,0 l/m 0,0 km/h N -4,9 C -2,9 C 0,0 km/h
03.12.2010 06:00 -2,9 C 86 % 1009,5 hPa 0,0 l/m 0,0 km/h N -4,9 C -2,9 C 0,0 km/h
03.12.2010 07:00 -3,1 C 86 % 1008,9 hPa 0,0 l/m 0,0 km/h N -5,1 C -3,1 C 0,0 km/h
03.12.2010 08:00 -3,1 C 86 % 1008,7 hPa 0,0 l/m 0,0 km/h N -5,1 C -3,1 C 0,0 km/h
03.12.2010 09:00 -2,8 C 86 % 1008,3 hPa 0,0 l/m 0,0 km/h N -4,8 C -2,8 C 0,0 km/h
03.12.2010 10:00 -2,3 C 86 % 1008,2 hPa 0,0 l/m 0,0 km/h N -4,3 C -2,3 C 0,0 km/h
03.12.2010 11:00 -2,1 C 86 % 1007,9 hPa 0,0 l/m 0,0 km/h N -4,1 C -2,1 C 0,0 km/h
03.12.2010 12:00 -2,1 C 86 % 1007,6 hPa 0,0 l/m 0,0 km/h N -4,1 C -2,1 C 0,0 km/h
03.12.2010 13:00 -2,7 C 86 % 1007,5 hPa 0,0 l/m 0,0 km/h N -4,7 C -2,7 C 0,0 km/h
03.12.2010 14:00 -2,8 C 86 % 1007,8 hPa 0,0 l/m 0,0 km/h N -4,8 C -2,8 C 0,0 km/h
03.12.2010 15:00 -2,8 C 86 % 1008,5 hPa 0,0 l/m 0,0 km/h N -4,8 C -2,8 C 0,0 km/h
03.12.2010 16:00 -2,5 C 86 % 1009,1 hPa 0,0 l/m 0,0 km/h N -4,5 C -2,5 C 0,0 km/h
03.12.2010 17:00 -2,3 C 86 % 1009,6 hPa 0,0 l/m 0,0 km/h N -4,3 C -2,3 C 0,0 km/h
03.12.2010 18:00 -2,0 C 86 % 1010,5 hPa 0,0 l/m 0,0 km/h N -4,0 C -2,0 C 0,0 km/h
03.12.2010 19:00 -2,0 C 86 % 1011,7 hPa 0,0 l/m 0,0 km/h N -4,0 C -2,0 C 0,0 km/h
03.12.2010 20:00 -1,8 C 86 % 1012,8 hPa 0,0 l/m 0,0 km/h N -3,8 C -1,8 C 0,0 km/h
03.12.2010 21:00 -1,9 C 86 % 1013,8 hPa 0,0 l/m 0,0 km/h N -3,9 C -1,9 C 0,0 km/h
03.12.2010 22:00 -2,4 C 86 % 1014,5 hPa 0,0 l/m 0,0 km/h N -4,4 C -2,4 C 0,0 km/h
03.12.2010 23:00 -2,9 C 86 % 1015,3 hPa 0,0 l/m 0,0 km/h N -4,9 C -2,9 C 0,0 km/h
04.12.2010 00:00 -3,1 C 86 % 1016,3 hPa 0,0 l/m 0,0 km/h N -5,1 C -3,1 C 0,0 km/h
04.12.2010 01:00 -3,4 C 86 % 1016,7 hPa 0,0 l/m 0,0 km/h N -5,4 C -3,4 C 0,0 km/h
04.12.2010 02:00 -3,6 C 86 % 1017,4 hPa 0,0 l/m 0,0 km/h N -5,6 C -3,6 C 0,0 km/h
04.12.2010 03:00 -3,2 C 85 % 1017,7 hPa 0,0 l/m 0,0 km/h N -5,4 C -3,2 C 0,4 km/h
04.12.2010 04:00 -3,5 C 84 % 1018,2 hPa 0,0 l/m 0,0 km/h N -5,8 C -3,5 C 0,0 km/h
04.12.2010 05:00 -4,4 C 84 % 1019,3 hPa 0,0 l/m 0,0 km/h N -6,7 C -4,4 C 0,0 km/h
04.12.2010 06:00 -5,1 C 84 % 1020,2 hPa 0,0 l/m 0,0 km/h N -7,3 C -5,1 C 0,0 km/h
04.12.2010 07:00 -5,4 C 85 % 1020,8 hPa 0,0 l/m 0,0 km/h N -7,5 C -5,4 C 0,0 km/h
04.12.2010 08:00 -4,8 C 84 % 1021,4 hPa 0,0 l/m 0,0 km/h N -7,0 C -4,8 C 0,0 km/h
04.12.2010 09:00 -4,1 C 83 % 1022,6 hPa 0,0 l/m 0,0 km/h N -6,6 C -4,1 C 0,0 km/h
04.12.2010 10:00 -3,4 C 81 % 1022,9 hPa 0,0 l/m 0,3 km/h NW -6,1 C -3,4 C 4,8 km/h
04.12.2010 11:00 -3,0 C 80 % 1022,8 hPa 0,0 l/m 7,3 km/h NW -6,0 C -4,0 C 17,7 km/h
04.12.2010 12:00 -2,5 C 79 % 1022,5 hPa 0,0 l/m 5,4 km/h NW -5,7 C -2,5 C 15,7 km/h
04.12.2010 13:00 -2,5 C 78 % 1022,3 hPa 0,0 l/m 5,3 km/h W-SW -5,8 C -2,5 C 13,7 km/h
04.12.2010 14:00 -2,5 C 77 % 1022,1 hPa 0,0 l/m 5,3 km/h W-NW -6,0 C -2,5 C 12,5 km/h
04.12.2010 15:00 -2,9 C 77 % 1022,1 hPa 0,0 l/m 5,4 km/h NW -6,4 C -2,9 C 16,1 km/h
04.12.2010 16:00 -3,4 C 77 % 1022,6 hPa 0,0 l/m 3,2 km/h NW -6,8 C -3,4 C 10,1 km/h
04.12.2010 17:00 -4,3 C 79 % 1023,0 hPa 0,0 l/m 2,1 km/h NW -7,4 C -4,3 C 6,8 km/h
04.12.2010 18:00 -5,2 C 80 % 1023,8 hPa 0,0 l/m 0,2 km/h N-NW -8,1 C -5,2 C 2,8 km/h
04.12.2010 19:00 -5,6 C 82 % 1024,1 hPa 0,0 l/m 0,9 km/h W-NW -8,2 C -5,6 C 5,2 km/h
04.12.2010 20:00 -5,8 C 83 % 1024,2 hPa 0,0 l/m 1,9 km/h NO -8,3 C -5,8 C 7,6 km/h
04.12.2010 21:00 -6,2 C 83 % 1024,6 hPa 0,0 l/m 1,6 km/h N -8,6 C -6,2 C 8,1 km/h
04.12.2010 22:00 -8,2 C 82 % 1024,6 hPa 0,0 l/m 0,0 km/h N -10,7 C -8,2 C 0,8 km/h
04.12.2010 23:00 -9,5 C 84 % 1024,8 hPa 0,0 l/m 0,0 km/h N -11,8 C -9,5 C 2,4 km/h
05.12.2010 00:00 -10,5 C 84 % 1024,6 hPa 0,0 l/m 0,0 km/h N -12,7 C -10,5 C 2,4 km/h
05.12.2010 01:00 -12,7 C 83 % 1024,4 hPa 0,0 l/m 0,0 km/h N -15,0 C -12,7 C 0,8 km/h
05.12.2010 02:00 -13,7 C 84 % 1024,2 hPa 0,0 l/m 0,0 km/h N -15,8 C -13,7 C 0,8 km/h
05.12.2010 03:00 -12,6 C 86 % 1023,9 hPa 0,0 l/m 0,0 km/h N -14,5 C -12,6 C 0,0 km/h
05.12.2010 04:00 -11,2 C 86 % 1023,4 hPa 0,0 l/m 0,0 km/h N -13,1 C -11,2 C 0,0 km/h
05.12.2010 05:00 -9,9 C 86 % 1022,8 hPa 0,0 l/m 0,0 km/h N -11,8 C -9,9 C 1,6 km/h
05.12.2010 06:00 -10,1 C 86 % 1022,3 hPa 0,0 l/m 0,8 km/h O-NO -12,0 C -10,1 C 3,2 km/h
05.12.2010 07:00 -10,9 C 86 % 1021,8 hPa 0,0 l/m 0,0 km/h N -12,7 C -10,9 C 4,0 km/h
05.12.2010 08:00 -11,3 C 86 % 1021,3 hPa 0,0 l/m 0,0 km/h N -13,2 C -11,3 C 2,4 km/h
05.12.2010 09:00 -11,2 C 86 % 1020,7 hPa 0,0 l/m 0,0 km/h N -13,1 C -11,2 C 3,2 km/h
05.12.2010 10:00 -10,8 C 86 % 1020,0 hPa 0,0 l/m 0,0 km/h N -12,7 C -10,8 C 3,2 km/h
05.12.2010 11:00 -8,9 C 86 % 1018,8 hPa 0,0 l/m 0,0 km/h N -10,8 C -8,9 C 4,0 km/h
05.12.2010 12:00 -8,9 C 86 % 1017,4 hPa 0,0 l/m 0,0 km/h N -10,8 C -8,9 C 4,0 km/h
05.12.2010 13:00 -8,0 C 86 % 1015,8 hPa 0,0 l/m 0,0 km/h N -9,9 C -8,0 C 2,4 km/h
05.12.2010 14:00 -6,6 C 86 % 1014,5 hPa 0,0 l/m 0,0 km/h N -8,5 C -6,6 C 1,6 km/h
05.12.2010 15:00 -5,9 C 86 % 1013,7 hPa 0,0 l/m 0,0 km/h N -7,9 C -5,9 C 0,8 km/h
05.12.2010 16:00 -5,6 C 86 % 1012,5 hPa 0,0 l/m 0,0 km/h N -7,6 C -5,6 C 1,6 km/h
05.12.2010 17:00 -5,3 C 86 % 1011,4 hPa 0,0 l/m 0,0 km/h N -7,3 C -5,3 C 2,4 km/h
05.12.2010 18:00 -4,6 C 86 % 1010,8 hPa 0,0 l/m 0,0 km/h N -6,6 C -4,6 C 2,4 km/h
05.12.2010 19:00 -4,3 C 86 % 1011,3 hPa 0,0 l/m 0,0 km/h N-NW -6,2 C -4,3 C 5,6 km/h
05.12.2010 20:00 -4,8 C 86 % 1011,6 hPa 0,0 l/m 2,4 km/h NW -6,8 C -4,8 C 14,5 km/h
05.12.2010 21:00 -6,2 C 86 % 1011,3 hPa 0,0 l/m 0,8 km/h N -8,1 C -6,2 C 4,8 km/h
05.12.2010 22:00 -6,4 C 86 % 1010,8 hPa 0,0 l/m 0,8 km/h SW -8,4 C -6,4 C 8,9 km/h
05.12.2010 23:00 -6,7 C 86 % 1010,0 hPa 0,0 l/m 0,0 km/h N -8,6 C -6,7 C 2,4 km/h
Min-Datum _ 05.12.10 30.11.10 29.11.10 - 29.11.10 - 05.12.10 05.12.10 29.11.10
_ Min-Zeit 02:30 02:15 04:45 - 00:00 - 02:00 02:00 00:00
Minimum _ -13,9 C 71 % 995,1 hPa - 0,0 km/h - -15,9 C -13,8 C 0,0 km/h
Max-Datum _ 29.11.10 29.11.10 04.12.10 29.11.10 29.11.10 - 29.11.10 29.11.10 29.11.10
_ Max-Zeit 12:30 08:15 23:00 11:15 23:00 - 10:00 10:45 11:45
Maximum _ 2,1 C 86 % 1024,8 hPa 1,6 l/m 14,9 km/h
W
- -0,3 C 1,9 C 43,5 km/h
SW
Durchschnitt _ -2,7 C 83 % 1011,0 hPa #9,9 l/m 1,7 km/h NW -5,2 C -2,9 C 6,4 km/h